createdAt,value
2023-01-18T00:00:10.492Z,11.90
2023-01-18T00:02:37.375Z,14.97
2023-01-18T00:05:04.265Z,13.10
2023-01-18T00:07:31.401Z,11.50
2023-01-18T00:09:58.097Z,11.87
2023-01-18T00:12:24.703Z,13.27
2023-01-18T00:14:51.266Z,10.93
2023-01-18T00:17:17.852Z,13.73
2023-01-18T00:19:44.417Z,16.20
2023-01-18T00:22:11.014Z,14.00
2023-01-18T00:24:37.736Z,14.03
2023-01-18T00:27:04.382Z,13.43
2023-01-18T00:29:31.361Z,13.23
2023-01-18T00:31:58.021Z,14.07
2023-01-18T00:34:28.279Z,20.20
2023-01-18T00:36:54.867Z,20.13
2023-01-18T00:39:21.540Z,18.67
2023-01-18T00:42:06.729Z,17.23
2023-01-18T00:44:33.296Z,16.30
2023-01-18T00:46:59.901Z,17.70
2023-01-18T00:49:26.511Z,16.80
2023-01-18T00:51:53.102Z,19.47
2023-01-18T00:54:19.731Z,15.70
2023-01-18T00:56:46.324Z,13.97
2023-01-18T00:59:12.904Z,15.40
2023-01-18T01:01:39.572Z,11.23
2023-01-18T01:04:24.833Z,15.93
2023-01-18T01:06:51.726Z,11.20
2023-01-18T01:09:20.401Z,11.00
2023-01-18T01:12:07.155Z,14.73
2023-01-18T01:14:55.307Z,12.83
2023-01-18T01:17:40.541Z,12.87
2023-01-18T01:20:28.587Z,10.37
2023-01-18T01:23:14.163Z,11.90
2023-01-18T01:25:59.633Z,8.97
2023-01-18T01:28:26.527Z,10.27
2023-01-18T01:31:00.514Z,9.20
2023-01-18T01:33:28.763Z,11.07
2023-01-18T01:36:04.519Z,9.53
2023-01-18T01:38:31.473Z,11.20
2023-01-18T01:41:04.413Z,12.67
2023-01-18T01:43:43.990Z,14.63
2023-01-18T01:46:22.432Z,13.77
2023-01-18T01:48:49.079Z,15.00
2023-01-18T01:51:19.019Z,15.73
2023-01-18T01:53:48.472Z,14.60
2023-01-18T01:56:15.375Z,14.80
2023-01-18T01:58:43.279Z,16.70
2023-01-18T02:01:09.932Z,13.93
2023-01-18T02:03:40.253Z,16.70
2023-01-18T02:06:19.274Z,18.67
2023-01-18T02:08:48.265Z,16.83
2023-01-18T02:11:14.820Z,12.33
2023-01-18T02:13:41.448Z,11.57
2023-01-18T02:16:17.548Z,12.63
2023-01-18T02:19:28.546Z,13.07
2023-01-18T02:22:03.893Z,13.17
2023-01-18T02:24:58.012Z,15.60
2023-01-18T02:27:31.733Z,13.63
2023-01-18T02:30:08.912Z,10.10
2023-01-18T02:32:46.448Z,11.63
2023-01-18T02:35:47.314Z,10.67
2023-01-18T02:38:19.667Z,11.70
2023-01-18T02:41:01.330Z,12.57
2023-01-18T02:43:47.172Z,10.47
2023-01-18T02:46:45.812Z,11.07
2023-01-18T02:49:20.048Z,10.77
2023-01-18T02:51:46.593Z,13.33
2023-01-18T02:54:24.049Z,10.50
2023-01-18T02:56:54.083Z,13.90
2023-01-18T02:59:29.501Z,11.77
2023-01-18T03:01:59.396Z,14.87
2023-01-18T03:04:31.148Z,15.47
2023-01-18T03:07:05.131Z,18.17
2023-01-18T03:09:32.060Z,15.23
2023-01-18T03:12:08.875Z,15.90
2023-01-18T03:14:56.962Z,25.83
2023-01-18T03:17:36.178Z,17.13
2023-01-18T03:20:11.392Z,16.70
2023-01-18T03:22:58.797Z,14.27
2023-01-18T03:25:32.571Z,17.50
2023-01-18T03:28:23.852Z,12.03
2023-01-18T03:31:10.918Z,14.50
2023-01-18T03:33:45.707Z,13.63
2023-01-18T03:36:23.385Z,13.83
2023-01-18T03:38:55.721Z,16.73
2023-01-18T03:41:27.350Z,14.90
2023-01-18T03:43:58.957Z,13.30
2023-01-18T03:46:29.070Z,15.10
2023-01-18T03:48:56.603Z,9.07
2023-01-18T03:51:53.897Z,9.83
2023-01-18T03:54:40.269Z,9.07
2023-01-18T03:57:16.308Z,10.23
2023-01-18T03:59:43.080Z,9.70
2023-01-18T04:02:10.097Z,9.17
2023-01-18T04:04:36.709Z,11.13
2023-01-18T04:07:03.789Z,14.33
2023-01-18T04:09:30.444Z,11.53
2023-01-18T04:11:56.988Z,12.93
2023-01-18T04:14:23.546Z,10.13
2023-01-18T04:16:50.294Z,10.07
2023-01-18T04:19:17.365Z,8.93
2023-01-18T04:21:44.367Z,12.67
2023-01-18T04:24:11.346Z,8.03
2023-01-18T04:26:38.829Z,8.90
2023-01-18T04:29:05.646Z,7.00
2023-01-18T04:31:32.314Z,9.53
2023-01-18T04:33:58.934Z,8.43
2023-01-18T04:36:25.545Z,7.17
2023-01-18T04:38:54.103Z,6.90
2023-01-18T04:41:21.029Z,7.53
2023-01-18T04:43:47.613Z,9.23
2023-01-18T04:46:15.274Z,6.90
2023-01-18T04:48:42.560Z,8.93
2023-01-18T04:51:13.778Z,6.67
2023-01-18T04:53:41.953Z,7.97
2023-01-18T04:56:08.709Z,6.33
2023-01-18T04:58:35.372Z,5.93
2023-01-18T05:01:05.951Z,8.77
2023-01-18T05:03:38.264Z,8.63
2023-01-18T05:06:10.676Z,7.47
2023-01-18T05:08:41.067Z,11.97
2023-01-18T05:11:10.584Z,9.77
2023-01-18T05:13:38.381Z,17.67
2023-01-18T05:16:06.521Z,11.30
2023-01-18T05:18:33.765Z,9.80
2023-01-18T05:21:00.466Z,9.27
2023-01-18T05:23:27.063Z,8.60
2023-01-18T05:25:57.829Z,9.60
2023-01-18T05:28:26.573Z,9.27
2023-01-18T05:30:54.540Z,11.13
2023-01-18T05:33:22.250Z,8.40
2023-01-18T05:35:54.509Z,10.43
2023-01-18T05:38:22.701Z,13.93
2023-01-18T05:40:54.117Z,7.87
2023-01-18T05:43:25.537Z,7.63
2023-01-18T05:45:52.353Z,8.33
2023-01-18T05:48:19.875Z,7.97
2023-01-18T05:50:48.607Z,7.60
2023-01-18T05:53:18.082Z,9.60
2023-01-18T05:55:53.174Z,8.27
2023-01-18T05:58:19.772Z,7.27
2023-01-18T06:00:46.403Z,8.33
2023-01-18T06:03:12.999Z,8.67
2023-01-18T06:05:39.674Z,8.47
2023-01-18T06:08:06.229Z,6.70
2023-01-18T06:10:32.842Z,8.10
2023-01-18T06:12:59.753Z,9.13
2023-01-18T06:15:26.570Z,9.07
2023-01-18T06:17:53.127Z,9.03
2023-01-18T06:20:19.695Z,8.00
2023-01-18T06:22:46.663Z,9.67
2023-01-18T06:25:13.330Z,8.80
2023-01-18T06:27:40.018Z,10.83
2023-01-18T06:30:07.302Z,7.97
2023-01-18T06:32:34.253Z,9.53
2023-01-18T06:35:00.828Z,11.97
2023-01-18T06:37:27.566Z,8.93
2023-01-18T06:39:54.135Z,6.43
2023-01-18T06:42:20.693Z,11.30
2023-01-18T06:44:47.227Z,9.47
2023-01-18T06:47:18.707Z,9.83
2023-01-18T06:49:47.053Z,9.83
2023-01-18T06:52:14.352Z,8.30
2023-01-18T06:54:40.999Z,7.37
2023-01-18T06:57:07.830Z,7.70
2023-01-18T06:59:34.391Z,7.97
2023-01-18T07:02:01.064Z,11.77
2023-01-18T07:04:27.732Z,11.00
2023-01-18T07:06:54.302Z,8.93
2023-01-18T07:09:20.905Z,11.93
2023-01-18T07:11:47.446Z,10.13
2023-01-18T07:14:14.116Z,10.00
2023-01-18T07:16:41.222Z,8.17
2023-01-18T07:19:08.072Z,8.23
2023-01-18T07:21:34.641Z,10.27
2023-01-18T07:24:01.539Z,5.73
2023-01-18T07:26:28.155Z,6.23
2023-01-18T07:28:56.096Z,8.47
2023-01-18T07:31:25.075Z,9.17
2023-01-18T07:33:52.235Z,8.30
2023-01-18T07:36:20.434Z,9.47
2023-01-18T07:38:47.833Z,8.77
2023-01-18T07:41:16.467Z,6.77
2023-01-18T07:43:44.642Z,8.87
2023-01-18T07:46:13.875Z,7.30
2023-01-18T07:48:40.483Z,8.93
2023-01-18T07:51:09.646Z,7.73
2023-01-18T07:53:37.891Z,7.43
2023-01-18T07:56:11.293Z,6.87
2023-01-18T07:58:38.148Z,6.67
2023-01-18T08:01:07.150Z,7.00
2023-01-18T08:03:34.223Z,6.57
2023-01-18T08:06:01.376Z,6.83
2023-01-18T08:08:29.017Z,8.07
2023-01-18T08:10:56.750Z,8.70
2023-01-18T08:13:24.398Z,7.23
2023-01-18T08:15:51.186Z,8.43
2023-01-18T08:18:18.016Z,6.20
2023-01-18T08:20:45.442Z,8.33
2023-01-18T08:23:13.024Z,6.83
2023-01-18T08:25:40.291Z,5.80
2023-01-18T08:28:07.727Z,10.53
2023-01-18T08:30:37.674Z,7.93
2023-01-18T08:33:04.805Z,7.53
2023-01-18T08:35:34.672Z,11.07
2023-01-18T08:38:01.921Z,7.83
2023-01-18T08:40:30.083Z,8.43
2023-01-18T08:42:59.059Z,10.23
2023-01-18T08:45:26.938Z,7.50
2023-01-18T08:48:02.366Z,7.03
2023-01-18T08:50:30.149Z,7.17
2023-01-18T08:52:59.914Z,9.33
2023-01-18T08:55:28.203Z,7.20
2023-01-18T08:57:55.539Z,14.60
2023-01-18T09:00:23.860Z,9.27
2023-01-18T09:02:51.587Z,9.10
2023-01-18T09:05:18.257Z,8.73
2023-01-18T09:07:45.288Z,7.67
2023-01-18T09:10:12.570Z,7.90
2023-01-18T09:12:39.742Z,8.43
2023-01-18T09:15:06.842Z,8.37
2023-01-18T09:17:34.032Z,10.53
2023-01-18T09:20:00.667Z,9.10
2023-01-18T09:22:27.341Z,8.87
2023-01-18T09:24:53.929Z,8.80
2023-01-18T09:27:20.521Z,7.87
2023-01-18T09:29:52.042Z,8.70
2023-01-18T09:32:21.885Z,8.87
2023-01-18T09:34:50.661Z,8.50
2023-01-18T09:37:19.071Z,9.93
2023-01-18T09:39:51.920Z,10.20
2023-01-18T09:42:22.370Z,8.37
2023-01-18T09:44:56.418Z,10.30
2023-01-18T09:47:26.931Z,7.77
2023-01-18T09:50:03.135Z,10.07
2023-01-18T09:52:32.457Z,8.37
2023-01-18T09:55:16.181Z,11.70
2023-01-18T09:58:06.929Z,11.57
2023-01-18T10:00:40.018Z,11.80
2023-01-18T10:03:15.538Z,9.60
2023-01-18T10:05:53.902Z,11.83
2023-01-18T10:08:29.530Z,9.30
2023-01-18T10:11:10.346Z,7.80
2023-01-18T10:14:03.234Z,7.63
2023-01-18T10:16:32.408Z,8.13
2023-01-18T10:18:59.216Z,9.33
2023-01-18T10:21:34.126Z,6.70
2023-01-18T10:24:26.275Z,9.13
2023-01-18T10:26:58.416Z,9.10
2023-01-18T10:29:42.316Z,11.43
2023-01-18T10:32:18.964Z,10.40
2023-01-18T10:34:49.249Z,9.43
2023-01-18T10:37:45.170Z,11.47
2023-01-18T10:40:14.649Z,7.10
2023-01-18T10:42:51.811Z,7.97
2023-01-18T10:45:22.608Z,7.70
2023-01-18T10:47:51.171Z,8.40
2023-01-18T10:50:35.746Z,10.57
2023-01-18T10:53:32.214Z,8.73
2023-01-18T10:56:05.424Z,5.83
2023-01-18T10:58:43.775Z,4.63
2023-01-18T11:01:16.526Z,10.97
2023-01-18T11:03:53.266Z,5.80
2023-01-18T11:06:22.538Z,5.47
2023-01-18T11:08:50.305Z,6.03
2023-01-18T11:11:48.026Z,5.87
2023-01-18T11:14:33.326Z,5.03
2023-01-18T11:17:02.490Z,5.00
2023-01-18T11:19:30.094Z,5.57
2023-01-18T11:21:56.749Z,7.60
2023-01-18T11:24:31.307Z,8.90
2023-01-18T11:27:20.262Z,8.10
2023-01-18T11:29:47.058Z,5.63
2023-01-18T11:32:34.088Z,6.83
2023-01-18T11:35:06.605Z,5.97
2023-01-18T11:37:38.775Z,16.40
2023-01-18T11:40:26.694Z,14.73
2023-01-18T11:43:03.840Z,9.43
2023-01-18T11:45:53.857Z,5.73
2023-01-18T11:48:33.383Z,7.83
2023-01-18T11:51:07.222Z,5.73
2023-01-18T11:53:57.143Z,5.20
2023-01-18T11:56:36.388Z,6.80
2023-01-18T11:59:04.428Z,13.00
2023-01-18T12:02:07.196Z,13.60
2023-01-18T12:04:46.132Z,6.13
2023-01-18T12:07:25.718Z,9.67
2023-01-18T12:09:55.567Z,9.00
2023-01-18T12:12:47.161Z,7.80
2023-01-18T12:15:29.724Z,7.33
2023-01-18T12:18:13.443Z,7.57
2023-01-18T12:20:58.205Z,6.53
2023-01-18T12:23:40.488Z,8.53
2023-01-18T12:26:33.490Z,8.37
2023-01-18T12:29:12.644Z,8.53
2023-01-18T12:31:53.415Z,8.83
2023-01-18T12:34:42.721Z,8.63
2023-01-18T12:37:49.990Z,8.20
2023-01-18T12:40:42.936Z,6.00
2023-01-18T12:43:27.472Z,7.40
2023-01-18T12:46:00.914Z,7.70
2023-01-18T12:48:47.033Z,9.07
2023-01-18T12:51:17.466Z,7.73
2023-01-18T12:53:59.135Z,5.67
2023-01-18T12:57:00.096Z,5.23
2023-01-18T12:59:50.726Z,5.97
2023-01-18T13:02:24.683Z,6.67
2023-01-18T13:04:59.785Z,7.63
2023-01-18T13:07:38.902Z,6.97
2023-01-18T13:10:13.045Z,5.53
2023-01-18T13:12:40.766Z,7.33
2023-01-18T13:15:30.912Z,7.23
2023-01-18T13:18:21.870Z,7.10
2023-01-18T13:20:58.382Z,6.60
2023-01-18T13:23:47.935Z,8.67
2023-01-18T13:26:24.271Z,6.47
2023-01-18T13:29:17.348Z,8.20
2023-01-18T13:31:46.028Z,5.17
2023-01-18T13:34:26.527Z,6.50
2023-01-18T13:37:02.538Z,7.43
2023-01-18T13:39:47.313Z,7.90
2023-01-18T13:42:13.788Z,7.27
2023-01-18T13:44:42.736Z,5.83
2023-01-18T13:47:45.790Z,6.47
2023-01-18T13:50:39.269Z,8.77
2023-01-18T13:53:14.858Z,8.67
2023-01-18T13:56:21.550Z,5.67
2023-01-18T13:59:16.331Z,6.13
2023-01-18T14:01:45.503Z,8.10
2023-01-18T14:04:33.027Z,11.90
2023-01-18T14:07:03.636Z,5.50
2023-01-18T14:09:46.849Z,5.40
2023-01-18T14:12:14.737Z,5.97
2023-01-18T14:14:55.806Z,7.17
2023-01-18T14:17:25.298Z,10.33
2023-01-18T14:20:18.367Z,6.87
2023-01-18T14:23:05.232Z,7.73
2023-01-18T14:25:48.534Z,6.93
2023-01-18T14:28:19.642Z,6.67
2023-01-18T14:30:48.155Z,4.67
2023-01-18T14:33:25.567Z,8.23
2023-01-18T14:36:01.514Z,7.33
2023-01-18T14:38:29.108Z,8.40
2023-01-18T14:41:05.100Z,8.57
2023-01-18T14:43:35.058Z,6.27
2023-01-18T14:46:15.662Z,7.47
2023-01-18T14:48:56.011Z,8.33
2023-01-18T14:51:25.748Z,6.23
2023-01-18T14:54:04.754Z,6.83
2023-01-18T14:56:39.739Z,8.30
2023-01-18T14:59:19.842Z,6.93
2023-01-18T15:02:01.789Z,5.67
2023-01-18T15:04:31.251Z,7.20
2023-01-18T15:07:04.508Z,5.17
2023-01-18T15:09:34.553Z,7.07
2023-01-18T15:12:05.583Z,7.67
2023-01-18T15:14:35.492Z,8.10
2023-01-18T15:17:08.129Z,9.23
2023-01-18T15:19:45.347Z,9.47
2023-01-18T15:22:15.432Z,6.07
2023-01-18T15:24:44.156Z,6.93
2023-01-18T15:27:19.785Z,5.70
2023-01-18T15:29:49.437Z,6.30
2023-01-18T15:32:19.786Z,8.03
2023-01-18T15:34:48.405Z,9.97
2023-01-18T15:37:20.985Z,6.17
2023-01-18T15:40:11.299Z,5.87
2023-01-18T15:42:43.869Z,5.60
2023-01-18T15:45:22.272Z,9.10
2023-01-18T15:47:52.187Z,9.53
2023-01-18T15:50:20.223Z,10.00
2023-01-18T15:52:50.194Z,8.77
2023-01-18T15:55:24.459Z,7.57
2023-01-18T15:58:01.333Z,8.83
2023-01-18T16:00:34.630Z,13.97
2023-01-18T16:03:21.477Z,9.07
2023-01-18T16:06:20.294Z,10.00
2023-01-18T16:09:12.819Z,6.57
2023-01-18T16:11:51.945Z,9.93
2023-01-18T16:14:36.462Z,7.87
2023-01-18T16:17:12.893Z,7.37
2023-01-18T16:19:47.866Z,9.20
2023-01-18T16:22:28.863Z,8.93
2023-01-18T16:25:20.909Z,8.47
2023-01-18T16:27:49.827Z,8.43
2023-01-18T16:30:34.103Z,8.57
2023-01-18T16:33:14.269Z,9.30
2023-01-18T16:35:41.950Z,9.03
2023-01-18T16:38:13.459Z,10.43
2023-01-18T16:40:44.192Z,11.17
2023-01-18T16:43:17.990Z,11.07
2023-01-18T16:45:47.663Z,10.67
2023-01-18T16:48:20.109Z,9.43
2023-01-18T16:50:50.784Z,9.63
2023-01-18T16:53:17.688Z,11.80
2023-01-18T16:55:45.198Z,10.87
2023-01-18T16:58:13.288Z,15.33
2023-01-18T17:00:54.643Z,9.10
2023-01-18T17:03:21.328Z,13.13
2023-01-18T17:05:48.049Z,10.50
2023-01-18T17:08:16.248Z,16.20
2023-01-18T17:10:45.951Z,13.90
2023-01-18T17:13:12.603Z,14.27
2023-01-18T17:15:41.827Z,12.93
2023-01-18T17:18:17.678Z,15.00
2023-01-18T17:20:44.553Z,11.07
2023-01-18T17:23:11.164Z,10.27
2023-01-18T17:25:37.851Z,9.47
2023-01-18T17:28:04.834Z,11.23
2023-01-18T17:30:32.946Z,12.53
2023-01-18T17:33:00.024Z,11.73
2023-01-18T17:35:31.864Z,12.47
2023-01-18T17:38:11.278Z,8.60
2023-01-18T17:40:42.619Z,10.37
2023-01-18T17:43:28.422Z,14.73
2023-01-18T17:46:02.318Z,11.37
2023-01-18T17:48:29.302Z,9.70
2023-01-18T17:50:55.975Z,12.73
2023-01-18T17:53:22.621Z,9.47
2023-01-18T17:55:49.311Z,13.47
2023-01-18T17:58:15.883Z,10.90
2023-01-18T18:00:42.559Z,12.23
2023-01-18T18:03:09.900Z,9.63
2023-01-18T18:05:37.821Z,13.10
2023-01-18T18:08:04.558Z,12.53
2023-01-18T18:10:31.151Z,8.87
2023-01-18T18:12:58.442Z,12.87
2023-01-18T18:15:25.705Z,11.87
2023-01-18T18:17:52.278Z,12.10
2023-01-18T18:20:19.956Z,11.00
2023-01-18T18:22:47.917Z,10.73
2023-01-18T18:25:14.549Z,12.63
2023-01-18T18:27:45.763Z,13.07
2023-01-18T18:30:13.277Z,13.10
2023-01-18T18:32:39.946Z,12.70
2023-01-18T18:35:23.214Z,11.97
2023-01-18T18:37:51.862Z,16.00
2023-01-18T18:40:19.803Z,12.37
2023-01-18T18:42:59.906Z,15.53
2023-01-18T18:45:27.240Z,14.13
2023-01-18T18:47:53.879Z,14.53
2023-01-18T18:50:20.521Z,12.17
2023-01-18T18:52:47.153Z,14.30
2023-01-18T18:55:13.976Z,13.00
2023-01-18T18:57:40.768Z,12.73
2023-01-18T19:00:08.164Z,12.03
2023-01-18T19:02:35.282Z,14.03
2023-01-18T19:05:02.419Z,12.70
2023-01-18T19:07:29.242Z,11.60
2023-01-18T19:09:56.024Z,13.80
2023-01-18T19:12:22.664Z,16.97
2023-01-18T19:14:49.390Z,13.17
2023-01-18T19:17:28.871Z,11.73
2023-01-18T19:19:56.780Z,15.93
2023-01-18T19:22:23.406Z,14.00
2023-01-18T19:24:50.179Z,14.17
2023-01-18T19:27:16.777Z,13.30
2023-01-18T19:29:43.941Z,13.87
2023-01-18T19:32:10.653Z,14.23
2023-01-18T19:34:41.085Z,15.07
2023-01-18T19:37:07.818Z,15.13
2023-01-18T19:39:34.984Z,18.63
2023-01-18T19:42:02.575Z,15.40
2023-01-18T19:44:29.587Z,15.10
2023-01-18T19:46:56.966Z,14.80
2023-01-18T19:49:26.336Z,13.93
2023-01-18T19:51:54.510Z,15.13
2023-01-18T19:54:22.033Z,18.00
2023-01-18T19:56:48.849Z,16.80
2023-01-18T19:59:16.122Z,16.33
2023-01-18T20:01:43.429Z,17.30
2023-01-18T20:04:10.799Z,15.63
2023-01-18T20:06:38.394Z,17.87
2023-01-18T20:09:17.866Z,15.50
2023-01-18T20:11:45.517Z,19.57
2023-01-18T20:14:13.251Z,17.73
2023-01-18T20:16:40.025Z,17.03
2023-01-18T20:19:06.735Z,16.20
2023-01-18T20:21:33.486Z,16.50
2023-01-18T20:24:00.899Z,19.40
2023-01-18T20:26:36.696Z,21.07
2023-01-18T20:29:08.243Z,15.80
2023-01-18T20:31:36.604Z,16.87
2023-01-18T20:34:04.161Z,13.77
2023-01-18T20:36:30.984Z,18.37
2023-01-18T20:38:57.738Z,17.17
2023-01-18T20:41:24.344Z,19.33
2023-01-18T20:43:51.107Z,16.87
2023-01-18T20:46:18.000Z,18.97
2023-01-18T20:48:44.634Z,22.43
2023-01-18T20:51:11.385Z,16.43
2023-01-18T20:53:38.167Z,15.90
2023-01-18T20:56:27.924Z,16.63
2023-01-18T20:58:59.339Z,13.93
2023-01-18T21:01:32.252Z,19.67
2023-01-18T21:04:01.258Z,15.27
2023-01-18T21:06:28.712Z,13.47
2023-01-18T21:08:57.776Z,14.57
2023-01-18T21:11:31.926Z,13.27
2023-01-18T21:13:59.446Z,15.30
2023-01-18T21:16:29.472Z,13.10
2023-01-18T21:18:59.327Z,19.97
2023-01-18T21:21:31.769Z,16.30
2023-01-18T21:23:59.297Z,14.10
2023-01-18T21:26:26.297Z,13.33
2023-01-18T21:28:55.091Z,15.43
2023-01-18T21:31:22.249Z,14.03
2023-01-18T21:33:49.800Z,13.90
2023-01-18T21:36:18.283Z,17.50
2023-01-18T21:38:48.123Z,16.97
2023-01-18T21:41:33.482Z,15.13
2023-01-18T21:44:18.613Z,16.20
2023-01-18T21:46:46.675Z,17.87
2023-01-18T21:49:47.058Z,16.17
2023-01-18T21:52:38.883Z,15.97
2023-01-18T21:55:06.001Z,16.67
2023-01-18T21:57:32.674Z,16.47
2023-01-18T21:59:59.247Z,15.83
2023-01-18T22:02:26.078Z,16.70
2023-01-18T22:05:03.535Z,15.10
2023-01-18T22:07:33.790Z,15.47
2023-01-18T22:10:06.074Z,15.70
2023-01-18T22:12:35.573Z,17.10
2023-01-18T22:15:05.886Z,15.37
2023-01-18T22:17:32.832Z,14.83
2023-01-18T22:19:59.924Z,15.97
2023-01-18T22:22:26.516Z,14.77
2023-01-18T22:24:53.374Z,14.43
2023-01-18T22:27:19.997Z,13.13
2023-01-18T22:29:46.569Z,15.87
2023-01-18T22:32:13.168Z,16.30
2023-01-18T22:34:39.964Z,13.43
2023-01-18T22:37:06.591Z,16.40
2023-01-18T22:39:33.298Z,15.50
2023-01-18T22:41:59.918Z,13.53
2023-01-18T22:44:26.484Z,15.50
2023-01-18T22:46:53.062Z,12.93
2023-01-18T22:49:19.750Z,16.30
2023-01-18T22:51:46.469Z,13.77
2023-01-18T22:54:13.142Z,14.30
2023-01-18T22:56:39.744Z,13.87
2023-01-18T22:59:06.350Z,14.40
2023-01-18T23:01:33.560Z,13.10
2023-01-18T23:04:03.498Z,12.20
2023-01-18T23:06:48.675Z,11.30
2023-01-18T23:09:17.412Z,14.13
2023-01-18T23:11:44.860Z,11.43
2023-01-18T23:14:30.330Z,11.87
2023-01-18T23:17:15.780Z,11.97
2023-01-18T23:19:42.410Z,11.67
2023-01-18T23:22:09.090Z,12.77
2023-01-18T23:24:37.337Z,12.43
2023-01-18T23:27:05.722Z,11.43
2023-01-18T23:29:32.598Z,11.03
2023-01-18T23:31:59.417Z,12.47
2023-01-18T23:34:26.370Z,12.07
2023-01-18T23:36:53.405Z,9.77
2023-01-18T23:39:40.983Z,13.50
2023-01-18T23:42:30.185Z,11.33
2023-01-18T23:45:29.100Z,11.10
2023-01-18T23:48:15.340Z,10.90
2023-01-18T23:51:01.529Z,12.77
2023-01-18T23:53:47.072Z,12.43
2023-01-18T23:56:13.776Z,10.40
2023-01-18T23:58:40.779Z,11.43
